Time;durP1;ratioP1;P1;durP2;ratioP2;P2;SDS_P1;SDS_P2;PMS_P1;PMS_P2;Temp;Humidity;BMP_temperature;BMP_pressure;BME280_temperature;BME280_humidity;BME280_pressure;Samples;Min_cycle;Max_cycle;Signal;HPM_P1;HPM_P2
2024/03/25 00:01:30;;;;;;;6.68;2.13;;;;;;;;;;6184972;28;20050;-86
2024/03/25 00:04:31;;;;;;;8.15;2.45;;;;;;;;;;6169175;28;20607;-87
2024/03/25 00:07:32;;;;;;;6.80;2.50;;;;;;;;;;6187647;28;20131;-86
2024/03/25 00:10:33;;;;;;;5.47;2.45;;;;;;;;;;6153101;28;20081;-88
2024/03/25 00:13:34;;;;;;;5.93;2.63;;;;;;;;;;6187183;28;20042;-86
2024/03/25 00:16:35;;;;;;;9.23;2.40;;;;;;;;;;6185910;28;20042;-86
2024/03/25 00:19:36;;;;;;;8.85;2.63;;;;;;;;;;6191059;28;20100;-85
2024/03/25 00:22:37;;;;;;;7.53;3.17;;;;;;;;;;6175741;28;20510;-85
2024/03/25 00:25:37;;;;;;;7.47;3.17;;;;;;;;;;6164453;28;20039;-85
2024/03/25 00:28:38;;;;;;;9.20;3.30;;;;;;;;;;6168330;28;20411;-85
2024/03/25 00:31:39;;;;;;;11.05;3.10;;;;;;;;;;6184098;28;20077;-84
2024/03/25 00:34:40;;;;;;;10.18;3.58;;;;;;;;;;6154517;28;20091;-85
2024/03/25 00:37:41;;;;;;;8.63;2.60;;;;;;;;;;6167976;28;20042;-87
2024/03/25 00:40:41;;;;;;;6.68;3.15;;;;;;;;;;6167167;28;20057;-85
2024/03/25 00:43:43;;;;;;;9.52;2.70;;;;;;;;;;6182833;28;20050;-85
2024/03/25 00:46:44;;;;;;;9.52;3.55;;;;;;;;;;6151668;28;20108;-86
2024/03/25 00:49:44;;;;;;;8.18;3.17;;;;;;;;;;6173333;28;20050;-86
2024/03/25 00:52:45;;;;;;;9.43;2.85;;;;;;;;;;6169364;28;20050;-86
2024/03/25 00:55:46;;;;;;;8.07;2.70;;;;;;;;;;6165670;28;20088;-85
2024/03/25 00:58:46;;;;;;;9.20;2.38;;;;;;;;;;6152355;28;20467;-85
2024/03/25 01:01:47;;;;;;;7.93;2.90;;;;;;;;;;6166420;28;20116;-85
2024/03/25 01:04:48;;;;;;;7.63;2.85;;;;;;;;;;6152710;28;20050;-86
2024/03/25 01:07:49;;;;;;;5.57;2.63;;;;;;;;;;6168468;28;20497;-86
2024/03/25 01:10:50;;;;;;;7.72;2.40;;;;;;;;;;6151137;28;20050;-86
2024/03/25 01:13:51;;;;;;;8.93;2.72;;;;;;;;;;6187128;28;20046;-85
2024/03/25 01:16:52;;;;;;;5.03;2.70;;;;;;;;;;6171995;28;20415;-85
2024/03/25 01:19:53;;;;;;;5.70;2.40;;;;;;;;;;6156092;28;20129;-86
2024/03/25 01:22:54;;;;;;;7.45;2.83;;;;;;;;;;6168470;28;20053;-85
2024/03/25 01:25:55;;;;;;;8.07;2.75;;;;;;;;;;6185193;28;20050;-85
2024/03/25 01:28:55;;;;;;;5.20;2.50;;;;;;;;;;6159420;28;20081;-86
2024/03/25 01:31:58;;;;;;;8.75;2.65;;;;;;;;;;6163551;28;20117;-89
2024/03/25 01:34:59;;;;;;;6.30;2.58;;;;;;;;;;6184367;28;20247;-85
2024/03/25 01:38:00;;;;;;;10.02;2.90;;;;;;;;;;6168659;28;20056;-86
2024/03/25 01:41:08;;;;;;;12.02;2.85;;;;;;;;;;6172566;28;20042;-85
2024/03/25 01:44:09;;;;;;;6.05;2.83;;;;;;;;;;6169727;28;20050;-85
2024/03/25 01:47:10;;;;;;;7.15;2.30;;;;;;;;;;6168417;28;20042;-87
2024/03/25 01:50:11;;;;;;;10.13;2.65;;;;;;;;;;6150474;28;20042;-84
2024/03/25 01:53:13;;;;;;;8.63;2.95;;;;;;;;;;6152432;28;20109;-84
2024/03/25 01:56:16;;;;;;;4.23;2.40;;;;;;;;;;6172597;28;20052;-85
2024/03/25 01:59:18;;;;;;;10.00;2.70;;;;;;;;;;6178594;28;20042;-84
2024/03/25 02:02:19;;;;;;;7.13;2.80;;;;;;;;;;6148597;28;20050;-84
2024/03/25 02:05:20;;;;;;;10.23;3.10;;;;;;;;;;6166944;28;20418;-84
2024/03/25 02:08:21;;;;;;;8.10;2.65;;;;;;;;;;6183529;28;20053;-84
2024/03/25 02:11:23;;;;;;;9.10;3.05;;;;;;;;;;6148511;28;20507;-84
2024/03/25 02:14:24;;;;;;;13.18;3.00;;;;;;;;;;6172437;28;20050;-83
2024/03/25 02:17:25;;;;;;;9.00;2.88;;;;;;;;;;6170554;28;20632;-85
2024/03/25 02:20:26;;;;;;;7.45;2.92;;;;;;;;;;6184246;28;20090;-83
2024/03/25 02:23:27;;;;;;;9.60;3.25;;;;;;;;;;6195763;28;20133;-84
2024/03/25 02:26:28;;;;;;;7.13;2.72;;;;;;;;;;6177151;28;20046;-84
2024/03/25 02:29:35;;;;;;;12.63;3.30;;;;;;;;;;6169517;28;20054;-85
2024/03/25 02:32:36;;;;;;;8.98;2.97;;;;;;;;;;6201519;28;20049;-84
2024/03/25 02:35:39;;;;;;;4.75;2.88;;;;;;;;;;6187054;28;20066;-83
2024/03/25 02:38:40;;;;;;;11.45;3.38;;;;;;;;;;6180168;28;20049;-84
2024/03/25 02:41:41;;;;;;;9.57;2.65;;;;;;;;;;6164861;28;20446;-84
2024/03/25 02:44:43;;;;;;;9.23;2.95;;;;;;;;;;6171499;28;20049;-84
2024/03/25 02:47:46;;;;;;;8.50;3.05;;;;;;;;;;6188893;28;20057;-84
2024/03/25 02:50:46;;;;;;;9.60;3.03;;;;;;;;;;6166962;28;20049;-84
2024/03/25 02:53:47;;;;;;;11.45;3.05;;;;;;;;;;6167494;28;20050;-84
2024/03/25 02:56:48;;;;;;;9.20;3.42;;;;;;;;;;6172561;28;20045;-84
2024/03/25 02:59:49;;;;;;;9.15;2.70;;;;;;;;;;6149410;28;20158;-83
2024/03/25 03:02:49;;;;;;;12.75;3.03;;;;;;;;;;6164248;28;20128;-84
2024/03/25 03:05:50;;;;;;;9.63;2.97;;;;;;;;;;6189084;28;20098;-84
2024/03/25 03:08:51;;;;;;;11.00;2.70;;;;;;;;;;6165270;28;20047;-84
2024/03/25 03:11:51;;;;;;;9.55;2.60;;;;;;;;;;6186018;28;20050;-84
2024/03/25 03:14:52;;;;;;;11.30;2.95;;;;;;;;;;6179697;28;20149;-84
2024/03/25 03:17:53;;;;;;;12.90;3.58;;;;;;;;;;6175231;28;20069;-84
2024/03/25 03:20:56;;;;;;;11.95;3.25;;;;;;;;;;6180453;28;20062;-83
2024/03/25 03:23:57;;;;;;;8.77;2.28;;;;;;;;;;6177464;28;20108;-84
2024/03/25 03:26:58;;;;;;;8.60;2.80;;;;;;;;;;6184326;28;20542;-84
2024/03/25 03:29:58;;;;;;;10.18;2.83;;;;;;;;;;6168878;28;20051;-84
2024/03/25 03:32:59;;;;;;;11.93;3.35;;;;;;;;;;6179486;28;20070;-84
2024/03/25 03:36:00;;;;;;;7.82;2.78;;;;;;;;;;6162898;28;20216;-84
2024/03/25 03:39:01;;;;;;;13.52;3.53;;;;;;;;;;6158872;28;20069;-84
2024/03/25 03:42:01;;;;;;;8.18;3.08;;;;;;;;;;6183351;28;20081;-84
2024/03/25 03:45:02;;;;;;;9.20;2.67;;;;;;;;;;6180824;28;20410;-84
2024/03/25 03:48:03;;;;;;;10.13;3.40;;;;;;;;;;6187949;28;20043;-83
2024/03/25 03:51:05;;;;;;;6.50;2.63;;;;;;;;;;6161853;28;20045;-84
2024/03/25 03:54:06;;;;;;;7.18;2.47;;;;;;;;;;6169621;28;20064;-84
2024/03/25 03:57:06;;;;;;;7.13;2.72;;;;;;;;;;6178065;28;20039;-87
2024/03/25 04:00:08;;;;;;;8.32;3.28;;;;;;;;;;6173021;28;20034;-87
2024/03/25 04:03:12;;;;;;;5.93;2.35;;;;;;;;;;6187996;28;20042;-86
2024/03/25 04:06:13;;;;;;;8.50;2.50;;;;;;;;;;6164145;28;20058;-86
2024/03/25 04:09:14;;;;;;;10.70;2.88;;;;;;;;;;6191588;28;20056;-89
2024/03/25 04:12:15;;;;;;;14.30;3.05;;;;;;;;;;6176937;28;20047;-86
2024/03/25 04:15:17;;;;;;;11.88;3.10;;;;;;;;;;6174723;28;20101;-86
2024/03/25 04:18:19;;;;;;;12.70;3.13;;;;;;;;;;6190785;28;20396;-86
2024/03/25 04:21:19;;;;;;;7.43;3.00;;;;;;;;;;6178630;28;20040;-85
2024/03/25 04:24:20;;;;;;;8.65;3.00;;;;;;;;;;6168174;28;20042;-86
2024/03/25 04:27:24;;;;;;;11.25;3.10;;;;;;;;;;6169913;28;20046;-88
2024/03/25 04:30:25;;;;;;;5.07;2.70;;;;;;;;;;6193112;28;20265;-86
2024/03/25 04:33:26;;;;;;;6.63;2.70;;;;;;;;;;6176681;28;20038;-87
2024/03/25 04:36:26;;;;;;;7.10;3.35;;;;;;;;;;6175544;28;20046;-86
2024/03/25 04:39:27;;;;;;;14.27;3.53;;;;;;;;;;6170683;28;20057;-87
2024/03/25 04:42:28;;;;;;;10.68;3.22;;;;;;;;;;6189548;28;20041;-85
2024/03/25 04:45:29;;;;;;;6.65;2.78;;;;;;;;;;6173338;28;20072;-85
2024/03/25 04:48:29;;;;;;;15.57;3.38;;;;;;;;;;6180539;28;20053;-88
2024/03/25 04:51:31;;;;;;;9.77;2.72;;;;;;;;;;6177593;28;20153;-86
2024/03/25 04:54:32;;;;;;;8.27;3.42;;;;;;;;;;6191295;28;20046;-85
2024/03/25 04:57:33;;;;;;;13.55;2.70;;;;;;;;;;6175017;28;20070;-86
2024/03/25 05:00:34;;;;;;;11.00;3.15;;;;;;;;;;6188852;28;20046;-86
2024/03/25 05:03:35;;;;;;;10.77;3.40;;;;;;;;;;6199693;28;20045;-88
2024/03/25 05:06:36;;;;;;;9.95;2.80;;;;;;;;;;6214006;28;20042;-87
2024/03/25 05:09:36;;;;;;;10.65;3.13;;;;;;;;;;6206674;28;20044;-84
2024/03/25 05:12:38;;;;;;;8.85;3.33;;;;;;;;;;6190576;28;20140;-84
2024/03/25 05:15:39;;;;;;;10.20;2.88;;;;;;;;;;6167508;28;20046;-84
2024/03/25 05:18:39;;;;;;;10.77;3.55;;;;;;;;;;6152953;28;20051;-84
2024/03/25 05:21:40;;;;;;;8.48;3.17;;;;;;;;;;6161106;28;20136;-83
2024/03/25 05:24:41;;;;;;;11.13;3.40;;;;;;;;;;6153608;28;20499;-83
2024/03/25 05:27:42;;;;;;;10.05;3.22;;;;;;;;;;6173680;28;20056;-83
2024/03/25 05:30:42;;;;;;;10.95;2.85;;;;;;;;;;6166000;28;20077;-84
2024/03/25 05:33:43;;;;;;;8.52;2.72;;;;;;;;;;6188074;28;20496;-83
2024/03/25 05:36:44;;;;;;;11.90;2.38;;;;;;;;;;6167213;28;20081;-83
2024/03/25 05:39:45;;;;;;;7.72;2.78;;;;;;;;;;6180834;28;20397;-83
2024/03/25 05:42:45;;;;;;;8.52;2.80;;;;;;;;;;6163504;28;20085;-83
2024/03/25 05:45:57;;;;;;;6.28;2.42;;;;;;;;;;6153027;28;20117;-84
2024/03/25 05:48:57;;;;;;;6.28;2.72;;;;;;;;;;6174047;28;20097;-84
2024/03/25 05:51:58;;;;;;;10.05;3.05;;;;;;;;;;6169215;28;20057;-83
2024/03/25 05:54:59;;;;;;;9.00;2.60;;;;;;;;;;6177294;28;20488;-84
2024/03/25 05:58:00;;;;;;;5.55;2.28;;;;;;;;;;6166053;28;20100;-84
2024/03/25 06:01:01;;;;;;;8.23;2.80;;;;;;;;;;6178668;28;20056;-84
2024/03/25 06:04:01;;;;;;;5.70;2.80;;;;;;;;;;6168078;28;20554;-83
2024/03/25 06:07:03;;;;;;;11.85;3.05;;;;;;;;;;6167974;28;20114;-84
2024/03/25 06:10:04;;;;;;;11.45;3.05;;;;;;;;;;6168528;28;20050;-84
2024/03/25 06:13:05;;;;;;;5.97;2.53;;;;;;;;;;6149736;28;20040;-84
2024/03/25 06:16:06;;;;;;;5.63;2.55;;;;;;;;;;6171736;28;20492;-83
2024/03/25 06:19:07;;;;;;;11.77;3.13;;;;;;;;;;6166907;28;20035;-83
2024/03/25 06:22:07;;;;;;;6.13;2.80;;;;;;;;;;6149828;28;20092;-84
2024/03/25 06:25:08;;;;;;;10.43;2.70;;;;;;;;;;6159275;28;20049;-84
2024/03/25 06:28:09;;;;;;;8.48;2.40;;;;;;;;;;6174604;28;20054;-84
2024/03/25 06:34:29;;;;;;;8.73;2.83;;;;;;;;;;6183830;28;20045;-84
2024/03/25 06:37:30;;;;;;;11.52;2.50;;;;;;;;;;6166823;28;20062;-84
2024/03/25 06:40:31;;;;;;;14.25;2.90;;;;;;;;;;6162698;28;20495;-84
2024/03/25 06:43:31;;;;;;;9.05;2.20;;;;;;;;;;6150481;28;20050;-84
2024/03/25 06:46:32;;;;;;;8.95;2.60;;;;;;;;;;6151456;28;20046;-84
2024/03/25 06:49:33;;;;;;;10.50;3.65;;;;;;;;;;6170379;28;20049;-84
2024/03/25 06:52:34;;;;;;;12.45;3.45;;;;;;;;;;6165293;28;20053;-84
2024/03/25 06:55:34;;;;;;;9.18;3.15;;;;;;;;;;6154719;28;20081;-85
2024/03/25 06:58:35;;;;;;;10.25;3.22;;;;;;;;;;6178957;28;20472;-85
2024/03/25 07:01:36;;;;;;;13.00;3.35;;;;;;;;;;6171385;28;20057;-83
2024/03/25 07:04:37;;;;;;;9.98;2.88;;;;;;;;;;6176613;28;20482;-84
2024/03/25 07:07:38;;;;;;;12.68;3.17;;;;;;;;;;6174707;28;20118;-84
2024/03/25 07:10:41;;;;;;;10.77;3.25;;;;;;;;;;6181767;28;20046;-84
2024/03/25 07:13:41;;;;;;;11.32;3.40;;;;;;;;;;6169891;28;20042;-85
2024/03/25 07:16:42;;;;;;;10.20;3.38;;;;;;;;;;6182279;28;20145;-84
2024/03/25 07:19:44;;;;;;;10.10;3.35;;;;;;;;;;6160975;28;20054;-84
2024/03/25 07:22:45;;;;;;;11.93;2.75;;;;;;;;;;6158539;28;20043;-84
2024/03/25 07:25:46;;;;;;;11.15;2.72;;;;;;;;;;6171798;28;20048;-84
2024/03/25 07:28:46;;;;;;;9.95;2.97;;;;;;;;;;6169699;28;20070;-84
2024/03/25 07:31:47;;;;;;;10.80;3.58;;;;;;;;;;6173078;28;20046;-84
2024/03/25 07:34:48;;;;;;;13.70;3.03;;;;;;;;;;6184402;28;20053;-84
2024/03/25 07:37:51;;;;;;;9.65;3.47;;;;;;;;;;6168491;28;20047;-84
2024/03/25 07:40:52;;;;;;;10.30;3.25;;;;;;;;;;6148579;28;20089;-82
2024/03/25 07:43:53;;;;;;;5.32;2.53;;;;;;;;;;6170108;28;20080;-83
2024/03/25 07:46:55;;;;;;;6.03;2.53;;;;;;;;;;6169670;28;20519;-84
2024/03/25 07:49:56;;;;;;;6.13;2.45;;;;;;;;;;6176340;28;20042;-83
2024/03/25 07:52:57;;;;;;;11.30;2.40;;;;;;;;;;6166126;28;20481;-83
2024/03/25 07:55:58;;;;;;;5.25;2.60;;;;;;;;;;6191655;28;20054;-83
2024/03/25 07:58:59;;;;;;;6.55;2.65;;;;;;;;;;6184728;28;20102;-83
2024/03/25 08:02:00;;;;;;;7.97;2.60;;;;;;;;;;6174379;28;20050;-83
2024/03/25 08:05:01;;;;;;;6.80;2.58;;;;;;;;;;6170945;28;20097;-83
2024/03/25 08:08:03;;;;;;;14.23;3.22;;;;;;;;;;6163222;28;20049;-83
2024/03/25 08:11:03;;;;;;;9.18;2.80;;;;;;;;;;6179331;28;20054;-83
2024/03/25 08:14:04;;;;;;;9.13;2.90;;;;;;;;;;6164553;28;20054;-83
2024/03/25 08:17:05;;;;;;;9.85;2.53;;;;;;;;;;6150051;28;20057;-83
2024/03/25 08:20:06;;;;;;;9.88;2.53;;;;;;;;;;6167447;28;20038;-83
2024/03/25 08:23:07;;;;;;;9.23;2.90;;;;;;;;;;6154031;28;20042;-84
2024/03/25 08:26:09;;;;;;;5.82;2.13;;;;;;;;;;6163414;28;20046;-83
2024/03/25 08:29:10;;;;;;;9.63;2.47;;;;;;;;;;6175250;28;20057;-84
2024/03/25 08:32:10;;;;;;;7.80;2.40;;;;;;;;;;6165794;28;20069;-84
2024/03/25 08:35:11;;;;;;;5.75;2.47;;;;;;;;;;6174917;28;20045;-83
2024/03/25 08:38:12;;;;;;;8.93;2.72;;;;;;;;;;6166925;28;20514;-83
2024/03/25 08:41:14;;;;;;;5.13;2.08;;;;;;;;;;6147994;28;20060;-83
2024/03/25 08:44:15;;;;;;;5.30;2.75;;;;;;;;;;6182148;28;20038;-84
2024/03/25 08:47:17;;;;;;;7.50;2.75;;;;;;;;;;6184777;28;20042;-84
2024/03/25 08:50:18;;;;;;;7.88;2.70;;;;;;;;;;6182564;28;20068;-84
2024/03/25 08:53:19;;;;;;;9.18;2.28;;;;;;;;;;6167968;28;20360;-84
2024/03/25 08:56:20;;;;;;;6.82;2.25;;;;;;;;;;6168219;28;20057;-84
2024/03/25 08:59:21;;;;;;;7.60;2.30;;;;;;;;;;6166348;28;20050;-84
2024/03/25 09:02:22;;;;;;;4.65;1.83;;;;;;;;;;6165508;28;20116;-84
2024/03/25 09:05:22;;;;;;;10.65;2.22;;;;;;;;;;6185002;28;20043;-83
2024/03/25 09:08:23;;;;;;;6.30;1.77;;;;;;;;;;6151961;28;20646;-84
2024/03/25 09:11:25;;;;;;;5.28;2.00;;;;;;;;;;6165002;28;20042;-84
2024/03/25 09:14:26;;;;;;;9.48;2.38;;;;;;;;;;6163472;28;20042;-84
2024/03/25 09:17:26;;;;;;;6.53;2.13;;;;;;;;;;6181485;28;20858;-84
2024/03/25 09:20:27;;;;;;;8.80;2.53;;;;;;;;;;6162402;28;20042;-84
2024/03/25 09:23:28;;;;;;;8.13;2.60;;;;;;;;;;6165068;28;20050;-85
2024/03/25 09:26:29;;;;;;;12.23;2.08;;;;;;;;;;6169518;28;20117;-84
2024/03/25 09:29:31;;;;;;;6.20;2.05;;;;;;;;;;6171279;28;20558;-86
2024/03/25 09:32:31;;;;;;;7.45;1.88;;;;;;;;;;6173220;28;20072;-86
2024/03/25 09:35:34;;;;;;;7.10;1.47;;;;;;;;;;6170928;28;20046;-86
2024/03/25 09:38:35;;;;;;;4.13;1.77;;;;;;;;;;6149231;28;20124;-84
2024/03/25 09:41:36;;;;;;;6.05;1.80;;;;;;;;;;6145953;28;20048;-83
2024/03/25 09:44:38;;;;;;;6.45;1.52;;;;;;;;;;6167084;28;20144;-84
2024/03/25 09:47:39;;;;;;;6.28;1.30;;;;;;;;;;6168244;28;20493;-84
2024/03/25 09:50:41;;;;;;;6.40;1.38;;;;;;;;;;6165101;28;20085;-84
2024/03/25 09:53:42;;;;;;;9.30;2.50;;;;;;;;;;6167579;28;20128;-84
2024/03/25 09:56:44;;;;;;;6.75;1.75;;;;;;;;;;6162354;28;20046;-86
2024/03/25 09:59:46;;;;;;;6.57;1.30;;;;;;;;;;6151986;28;20076;-87
2024/03/25 10:02:47;;;;;;;5.82;1.70;;;;;;;;;;6149797;28;20044;-89
2024/03/25 10:05:47;;;;;;;5.03;1.60;;;;;;;;;;6150211;28;20046;-84
2024/03/25 10:08:48;;;;;;;4.80;1.20;;;;;;;;;;6179145;28;20056;-88
2024/03/25 10:11:50;;;;;;;5.85;1.40;;;;;;;;;;6176476;28;20078;-87
2024/03/25 10:14:50;;;;;;;9.23;1.45;;;;;;;;;;6173097;28;20155;-89
2024/03/25 10:17:52;;;;;;;3.63;1.42;;;;;;;;;;6165400;28;20428;-87
2024/03/25 10:20:53;;;;;;;3.80;1.27;;;;;;;;;;6172162;28;20046;-88
2024/03/25 10:23:55;;;;;;;4.22;1.20;;;;;;;;;;6210924;28;20058;-86
2024/03/25 10:26:57;;;;;;;5.93;1.38;;;;;;;;;;6164601;28;20042;-85
2024/03/25 10:29:58;;;;;;;2.92;1.38;;;;;;;;;;6190188;28;20053;-85
2024/03/25 10:33:05;;;;;;;5.63;1.50;;;;;;;;;;6188067;28;20042;-85
2024/03/25 10:36:08;;;;;;;2.88;1.25;;;;;;;;;;6177031;28;20049;-85
2024/03/25 10:39:11;;;;;;;7.25;1.40;;;;;;;;;;6171706;28;20090;-85
2024/03/25 10:42:13;;;;;;;4.82;1.83;;;;;;;;;;6182250;28;20077;-85
2024/03/25 10:45:15;;;;;;;5.60;1.35;;;;;;;;;;6215196;28;20034;-85
2024/03/25 10:48:28;;;;;;;6.60;1.60;;;;;;;;;;6175507;28;20514;-85
2024/03/25 10:51:30;;;;;;;2.97;1.35;;;;;;;;;;6173525;28;20488;-85
2024/03/25 10:54:32;;;;;;;8.07;1.57;;;;;;;;;;6166034;28;20048;-87
2024/03/25 10:57:34;;;;;;;3.72;1.30;;;;;;;;;;6185341;28;20121;-87
2024/03/25 11:00:37;;;;;;;;;;;;;;;;;;6170420;28;20052;-88
2024/03/25 11:03:38;;;;;;;3.88;1.60;;;;;;;;;;6153206;28;19925;-85
2024/03/25 11:06:39;;;;;;;5.32;1.52;;;;;;;;;;6151911;28;20038;-85
2024/03/25 11:09:43;;;;;;;4.43;1.23;;;;;;;;;;6169047;28;20484;-85
2024/03/25 11:12:45;;;;;;;3.70;1.40;;;;;;;;;;6167924;28;20038;-84
2024/03/25 11:15:47;;;;;;;2.80;1.00;;;;;;;;;;6172512;28;20507;-85
2024/03/25 11:18:51;;;;;;;5.93;1.20;;;;;;;;;;6171522;28;20500;-84
2024/03/25 11:21:52;;;;;;;4.13;1.25;;;;;;;;;;6175291;28;20054;-83
2024/03/25 11:24:55;;;;;;;5.30;1.35;;;;;;;;;;6167478;28;20422;-85
2024/03/25 11:27:55;;;;;;;3.50;1.10;;;;;;;;;;6189156;28;20081;-85
2024/03/25 11:30:56;;;;;;;2.92;1.25;;;;;;;;;;6158902;28;20125;-85
2024/03/25 11:33:57;;;;;;;3.70;1.27;;;;;;;;;;6161960;28;20053;-84
2024/03/25 11:36:58;;;;;;;3.97;1.35;;;;;;;;;;6166445;28;20042;-84
2024/03/25 11:40:04;;;;;;;3.10;1.20;;;;;;;;;;6170091;28;20043;-85
2024/03/25 11:43:04;;;;;;;5.40;2.17;;;;;;;;;;6179122;28;20061;-84
2024/03/25 11:46:05;;;;;;;3.78;1.42;;;;;;;;;;6152467;28;20129;-85
2024/03/25 11:49:08;;;;;;;3.03;1.33;;;;;;;;;;6172349;28;20046;-85
2024/03/25 11:52:09;;;;;;;;;;;;;;;;;;6176287;28;20048;-85
2024/03/25 11:55:21;;;;;;;4.17;1.40;;;;;;;;;;6200149;28;19910;-89
2024/03/25 11:58:23;;;;;;;7.15;1.20;;;;;;;;;;6194327;28;21308;-87
2024/03/25 12:01:23;;;;;;;4.43;1.50;;;;;;;;;;6172564;28;20046;-88
2024/03/25 12:04:25;;;;;;;3.17;1.17;;;;;;;;;;6172754;28;20562;-88
2024/03/25 12:07:25;;;;;;;4.72;3.17;;;;;;;;;;6150760;28;20500;-88
2024/03/25 12:13:47;;;;;;;1.88;1.10;;;;;;;;;;6166013;28;20046;-88
2024/03/25 12:16:48;;;;;;;3.97;1.30;;;;;;;;;;6150679;28;20087;-89
2024/03/25 12:20:03;;;;;;;5.68;1.20;;;;;;;;;;6149398;28;20050;-88
2024/03/25 12:23:04;;;;;;;5.60;1.35;;;;;;;;;;6159983;28;20057;-86
2024/03/25 12:26:05;;;;;;;4.20;1.20;;;;;;;;;;6168009;28;20129;-86
2024/03/25 12:29:06;;;;;;;3.72;1.50;;;;;;;;;;6150840;28;20046;-85
2024/03/25 12:32:09;;;;;;;4.35;1.02;;;;;;;;;;6152124;28;20038;-85
2024/03/25 12:35:12;;;;;;;6.18;1.27;;;;;;;;;;6170089;28;20062;-84
2024/03/25 12:38:25;;;;;;;5.63;1.85;;;;;;;;;;6182718;28;20404;-86
2024/03/25 12:41:27;;;;;;;2.97;1.10;;;;;;;;;;6161527;28;20408;-85
2024/03/25 12:44:27;;;;;;;2.80;1.02;;;;;;;;;;6180695;28;20042;-85
2024/03/25 12:47:28;;;;;;;8.18;1.67;;;;;;;;;;6176238;28;20402;-86
2024/03/25 12:50:29;;;;;;;5.03;1.30;;;;;;;;;;6168142;28;20131;-86
2024/03/25 12:53:30;;;;;;;5.00;1.35;;;;;;;;;;6168461;28;20034;-86
2024/03/25 12:56:31;;;;;;;5.60;1.48;;;;;;;;;;6160148;28;20060;-85
2024/03/25 12:59:32;;;;;;;2.83;0.93;;;;;;;;;;6181034;28;20046;-85
2024/03/25 13:02:32;;;;;;;5.93;1.48;;;;;;;;;;6172783;28;20046;-85
2024/03/25 13:05:34;;;;;;;5.35;1.00;;;;;;;;;;6172788;28;20093;-85
2024/03/25 13:08:35;;;;;;;4.78;1.20;;;;;;;;;;6158084;28;20415;-86
2024/03/25 13:11:36;;;;;;;6.30;1.30;;;;;;;;;;6153218;28;20117;-85
2024/03/25 13:14:37;;;;;;;4.57;1.02;;;;;;;;;;6146588;28;20521;-85
2024/03/25 13:17:38;;;;;;;2.08;0.88;;;;;;;;;;6179068;28;20085;-85
2024/03/25 13:20:39;;;;;;;1.85;1.17;;;;;;;;;;6167287;28;20076;-85
2024/03/25 13:23:40;;;;;;;2.15;1.20;;;;;;;;;;6184987;28;20058;-85
2024/03/25 13:26:40;;;;;;;3.70;1.10;;;;;;;;;;6189767;28;20503;-85
2024/03/25 13:29:41;;;;;;;2.58;1.20;;;;;;;;;;6206753;28;20050;-87
2024/03/25 13:32:42;;;;;;;3.85;1.20;;;;;;;;;;6198664;28;20663;-87
2024/03/25 13:35:43;;;;;;;4.40;1.17;;;;;;;;;;6220066;28;20065;-88
2024/03/25 13:38:45;;;;;;;3.05;1.10;;;;;;;;;;6207270;28;20050;-89
2024/03/25 13:41:46;;;;;;;6.22;1.13;;;;;;;;;;6169623;28;20070;-88
2024/03/25 13:44:46;;;;;;;3.42;1.40;;;;;;;;;;6159296;28;20046;-86
2024/03/25 13:47:47;;;;;;;5.88;1.40;;;;;;;;;;6187688;28;20042;-86
2024/03/25 13:50:48;;;;;;;5.13;1.33;;;;;;;;;;6194808;28;20503;-86
2024/03/25 13:53:50;;;;;;;5.45;1.45;;;;;;;;;;6176596;28;20054;-87
2024/03/25 13:56:51;;;;;;;3.30;1.42;;;;;;;;;;6191679;28;20500;-86
2024/03/25 13:59:52;;;;;;;5.22;1.17;;;;;;;;;;6165894;28;20054;-86
2024/03/25 14:02:52;;;;;;;5.53;1.05;;;;;;;;;;6175137;28;20467;-86
2024/03/25 14:05:53;;;;;;;2.85;1.15;;;;;;;;;;6139660;28;20046;-88
2024/03/25 14:08:54;;;;;;;3.05;1.08;;;;;;;;;;6175630;28;20050;-88
2024/03/25 14:11:57;;;;;;;7.45;1.48;;;;;;;;;;6149101;28;20064;-89
2024/03/25 14:15:01;;;;;;;5.57;0.80;;;;;;;;;;6172820;28;20053;-87
2024/03/25 14:18:02;;;;;;;3.40;1.05;;;;;;;;;;6177327;28;20474;-86
2024/03/25 14:21:03;;;;;;;3.58;1.10;;;;;;;;;;6161221;28;20092;-87
2024/03/25 14:24:05;;;;;;;4.63;1.05;;;;;;;;;;6161581;28;21158;-88
2024/03/25 14:27:06;;;;;;;4.38;1.20;;;;;;;;;;6160324;28;20038;-87
2024/03/25 14:30:10;;;;;;;3.40;1.42;;;;;;;;;;6177092;28;21148;-88
2024/03/25 14:33:12;;;;;;;4.32;1.40;;;;;;;;;;6147628;28;20088;-88
2024/03/25 14:36:13;;;;;;;3.55;1.08;;;;;;;;;;6179381;28;20491;-89
2024/03/25 14:39:14;;;;;;;6.43;1.33;;;;;;;;;;6158355;28;20046;-89
2024/03/25 14:42:15;;;;;;;3.65;1.00;;;;;;;;;;6161407;28;20043;-88
2024/03/25 14:45:16;;;;;;;3.65;1.13;;;;;;;;;;6143303;28;20082;-88
2024/03/25 14:48:16;;;;;;;2.78;1.13;;;;;;;;;;6158744;28;20101;-88
2024/03/25 14:51:17;;;;;;;2.05;1.00;;;;;;;;;;6178645;28;20133;-88
2024/03/25 14:54:18;;;;;;;5.50;1.27;;;;;;;;;;6154639;28;20050;-88
2024/03/25 14:57:19;;;;;;;5.75;1.38;;;;;;;;;;6160023;28;20042;-88
2024/03/25 15:00:20;;;;;;;3.60;1.20;;;;;;;;;;6188998;28;20055;-86
2024/03/25 15:03:21;;;;;;;3.25;1.10;;;;;;;;;;6174423;28;20435;-87
2024/03/25 15:06:22;;;;;;;3.88;1.30;;;;;;;;;;6187707;28;20058;-88
2024/03/25 15:09:24;;;;;;;3.75;1.60;;;;;;;;;;6164090;28;20137;-87
2024/03/25 15:12:26;;;;;;;4.95;1.27;;;;;;;;;;6174450;28;20324;-88
2024/03/25 15:15:27;;;;;;;3.50;1.10;;;;;;;;;;6169063;28;20043;-88
2024/03/25 15:18:28;;;;;;;2.72;1.10;;;;;;;;;;6152917;28;20051;-88
2024/03/25 15:21:29;;;;;;;5.65;1.30;;;;;;;;;;6148076;28;20046;-88
2024/03/25 15:24:30;;;;;;;4.90;1.30;;;;;;;;;;6172357;28;20054;-89
2024/03/25 15:27:31;;;;;;;4.93;1.30;;;;;;;;;;6147069;28;20046;-88
2024/03/25 15:30:32;;;;;;;3.92;1.20;;;;;;;;;;6167430;28;20046;-88
2024/03/25 15:33:33;;;;;;;4.20;1.00;;;;;;;;;;6149051;28;20049;-88
2024/03/25 15:36:34;;;;;;;7.82;1.70;;;;;;;;;;6165599;28;20057;-88
2024/03/25 15:39:35;;;;;;;5.05;1.17;;;;;;;;;;6156836;28;20046;-88
2024/03/25 15:42:35;;;;;;;3.72;1.13;;;;;;;;;;6144015;28;20046;-87
2024/03/25 15:45:36;;;;;;;2.70;0.70;;;;;;;;;;6166479;28;20047;-89
2024/03/25 15:48:39;;;;;;;2.53;1.00;;;;;;;;;;6152257;28;20496;-89
2024/03/25 15:51:40;;;;;;;6.10;0.82;;;;;;;;;;6148271;28;20070;-89
2024/03/25 15:54:41;;;;;;;4.00;0.80;;;;;;;;;;6163175;28;20080;-89
2024/03/25 15:57:42;;;;;;;3.30;1.35;;;;;;;;;;6154018;28;20050;-89
2024/03/25 16:00:43;;;;;;;2.63;0.95;;;;;;;;;;6163817;28;20195;-89
2024/03/25 16:03:44;;;;;;;2.40;0.82;;;;;;;;;;6141628;28;20137;-89
2024/03/25 16:06:45;;;;;;;3.53;0.88;;;;;;;;;;6166330;28;20053;-88
2024/03/25 16:09:46;;;;;;;4.68;1.00;;;;;;;;;;6184161;28;20129;-88
2024/03/25 16:12:48;;;;;;;7.15;1.60;;;;;;;;;;6167079;28;20050;-88
2024/03/25 16:16:06;;;;;;;3.25;1.10;;;;;;;;;;6149208;28;20186;-89
2024/03/25 16:19:07;;;;;;;1.88;0.80;;;;;;;;;;6164107;28;20046;-87
2024/03/25 16:22:08;;;;;;;2.17;0.77;;;;;;;;;;6168303;28;20515;-87
2024/03/25 16:25:10;;;;;;;2.35;0.90;;;;;;;;;;6170812;28;20058;-88
2024/03/25 16:28:10;;;;;;;2.97;1.00;;;;;;;;;;6199070;28;20058;-88
2024/03/25 16:31:11;;;;;;;3.47;0.80;;;;;;;;;;6197740;28;20073;-89
2024/03/25 16:34:12;;;;;;;3.03;1.17;;;;;;;;;;6193642;28;20049;-90
2024/03/25 16:37:14;;;;;;;5.50;1.30;;;;;;;;;;6207842;28;20077;-87
2024/03/25 16:40:15;;;;;;;4.80;1.33;;;;;;;;;;6179635;28;20088;-87
2024/03/25 16:43:18;;;;;;;4.95;1.67;;;;;;;;;;6166726;28;20066;-88
2024/03/25 16:46:19;;;;;;;3.33;1.15;;;;;;;;;;6164206;28;20419;-85
2024/03/25 16:49:20;;;;;;;4.57;1.00;;;;;;;;;;6173302;28;20054;-84
2024/03/25 16:52:21;;;;;;;4.32;1.17;;;;;;;;;;6180622;28;20043;-84
2024/03/25 16:55:22;;;;;;;3.92;1.05;;;;;;;;;;6165923;28;20061;-84
2024/03/25 16:58:23;;;;;;;6.78;1.40;;;;;;;;;;6190619;28;20039;-84
2024/03/25 17:01:24;;;;;;;5.85;1.80;;;;;;;;;;6172646;28;20042;-85
2024/03/25 17:04:24;;;;;;;5.00;1.77;;;;;;;;;;6187999;28;20107;-84
2024/03/25 17:07:25;;;;;;;7.82;1.52;;;;;;;;;;6170682;28;20045;-85
2024/03/25 17:10:30;;;;;;;6.53;1.55;;;;;;;;;;6150842;28;20041;-85
2024/03/25 17:13:31;;;;;;;3.13;1.25;;;;;;;;;;6185605;28;20138;-85
2024/03/25 17:16:33;;;;;;;5.30;1.70;;;;;;;;;;6153738;28;20051;-85
2024/03/25 17:19:34;;;;;;;5.32;1.63;;;;;;;;;;6156035;28;20046;-85
2024/03/25 17:22:35;;;;;;;6.30;1.50;;;;;;;;;;6167633;28;20045;-85
2024/03/25 17:25:38;;;;;;;3.70;1.50;;;;;;;;;;6159937;28;20034;-85
2024/03/25 17:28:39;;;;;;;10.05;2.33;;;;;;;;;;6180814;28;20038;-85
2024/03/25 17:31:39;;;;;;;3.83;1.20;;;;;;;;;;6173728;28;20156;-84
2024/03/25 17:34:40;;;;;;;3.75;2.17;;;;;;;;;;6180329;28;20042;-83
2024/03/25 17:37:42;;;;;;;2.00;1.63;;;;;;;;;;6166247;28;20594;-84
2024/03/25 17:40:43;;;;;;;3.88;1.70;;;;;;;;;;6150306;28;20053;-86
2024/03/25 17:43:43;;;;;;;4.40;2.03;;;;;;;;;;6175204;28;20474;-86
2024/03/25 17:46:45;;;;;;;3.35;1.50;;;;;;;;;;6182722;28;20046;-86
2024/03/25 17:49:46;;;;;;;11.00;4.40;;;;;;;;;;6183498;28;20065;-87
2024/03/25 17:52:47;;;;;;;4.25;2.15;;;;;;;;;;6187010;28;20746;-88
2024/03/25 17:55:50;;;;;;;5.78;2.60;;;;;;;;;;6139057;28;20046;-87
2024/03/25 17:58:51;;;;;;;8.52;2.55;;;;;;;;;;6129944;28;20051;-88
2024/03/25 18:01:52;;;;;;;8.13;3.00;;;;;;;;;;6145043;28;20500;-88
2024/03/25 18:04:53;;;;;;;7.97;3.47;;;;;;;;;;6144007;28;20074;-88
2024/03/25 18:07:54;;;;;;;6.07;3.55;;;;;;;;;;6144622;28;20060;-88
2024/03/25 18:10:55;;;;;;;4.65;3.33;;;;;;;;;;6194901;28;20133;-88